Time;durP1;ratioP1;P1;durP2;ratioP2;P2;SDS_P1;SDS_P2;PMS_P1;PMS_P2;Temp;Humidity;BMP_temperature;BMP_pressure;BME280_temperature;BME280_humidity;BME280_pressure;Samples;Min_cycle;Max_cycle;Signal;HPM_P1;HPM_P2
2023/08/27 00:00:48;;;;;;;0.40;0.40;;;;;;;16.36;95.11;98041.97;4153751;28;20205;-49
2023/08/27 00:02:50;;;;;;;0.60;0.60;;;;;;;16.27;94.86;98052.06;4159238;28;20205;-50
2023/08/27 00:04:52;;;;;;;0.60;0.60;;;;;;;16.26;95.25;98061.47;4167456;28;20254;-51
2023/08/27 00:06:53;;;;;;;0.22;0.22;;;;;;;16.26;95.44;98061.47;4152577;28;20244;-50
2023/08/27 00:08:55;;;;;;;0.65;0.65;;;;;;;16.30;95.72;98037.66;4153593;28;20212;-50
2023/08/27 00:10:58;;;;;;;0.30;0.30;;;;;;;16.35;95.72;98034.81;4154202;28;20209;-50
2023/08/27 00:13:00;;;;;;;0.50;0.50;;;;;;;16.40;95.62;98045.00;4169463;28;20616;-50
2023/08/27 00:15:03;;;;;;;1.55;1.42;;;;;;;16.28;95.14;98053.69;4162413;28;20283;-51
2023/08/27 00:17:05;;;;;;;0.88;0.88;;;;;;;16.36;95.77;98044.75;4162038;28;20232;-49
2023/08/27 00:19:06;;;;;;;0.30;0.30;;;;;;;16.24;96.54;98035.28;4156469;28;20209;-51
2023/08/27 00:21:08;;;;;;;0.47;0.47;;;;;;;16.16;97.15;98045.03;4157365;28;20259;-50
2023/08/27 00:23:11;;;;;;;0.85;0.85;;;;;;;16.11;96.93;98047.88;4155449;28;20212;-52
2023/08/27 00:25:13;;;;;;;0.25;0.25;;;;;;;16.15;97.55;98054.44;4155007;28;20198;-49
2023/08/27 00:27:15;;;;;;;0.30;0.30;;;;;;;16.14;97.79;98052.81;4162663;28;20208;-51
2023/08/27 00:29:19;;;;;;;1.30;0.60;;;;;;;16.20;97.95;98051.63;4162394;28;20201;-49
2023/08/27 00:31:20;;;;;;;0.52;0.52;;;;;;;16.15;98.27;98059.97;4155312;28;20232;-49
2023/08/27 00:33:22;;;;;;;0.40;0.40;;;;;;;16.17;97.91;98071.53;4153062;28;20300;-51
2023/08/27 00:35:24;;;;;;;0.28;0.28;;;;;;;16.14;97.82;98074.88;4170624;28;20208;-52
2023/08/27 00:37:26;;;;;;;0.55;0.55;;;;;;;16.24;97.89;98071.16;4156106;28;20258;-49
2023/08/27 00:39:30;;;;;;;0.40;0.40;;;;;;;16.19;97.46;98069.31;4157949;28;20271;-49
2023/08/27 00:41:32;;;;;;;0.50;0.50;;;;;;;16.21;97.74;98061.53;4160283;28;20275;-50
2023/08/27 00:43:33;;;;;;;0.52;0.40;;;;;;;16.37;97.43;98062.16;4157409;28;20238;-52
2023/08/27 00:45:35;;;;;;;0.73;0.73;;;;;;;16.26;98.12;98050.44;4171050;28;20223;-49
2023/08/27 00:47:37;;;;;;;0.55;0.55;;;;;;;16.20;97.81;98046.09;4171841;28;20205;-51
2023/08/27 00:49:39;;;;;;;0.63;0.43;;;;;;;16.21;98.21;98058.78;4157102;28;20213;-49
2023/08/27 00:51:42;;;;;;;0.20;0.20;;;;;;;16.25;98.08;98047.94;4157373;28;20280;-49
2023/08/27 00:53:47;;;;;;;0.30;0.30;;;;;;;16.28;97.73;98047.34;4161940;28;20204;-51
2023/08/27 00:55:51;;;;;;;0.32;0.32;;;;;;;16.22;97.16;98045.81;4155851;28;20306;-49
2023/08/27 00:57:54;;;;;;;1.45;1.08;;;;;;;16.21;97.27;98061.53;4154531;28;20243;-50
2023/08/27 00:59:56;;;;;;;0.50;0.50;;;;;;;16.20;97.58;98062.66;4160527;28;20213;-49
2023/08/27 01:01:57;;;;;;;0.70;0.70;;;;;;;16.23;97.68;98048.25;4141998;28;20201;-51
2023/08/27 01:04:00;;;;;;;0.32;0.32;;;;;;;16.10;98.38;98034.38;4170792;28;20208;-49
2023/08/27 01:06:02;;;;;;;0.65;0.47;;;;;;;16.14;98.25;98036.22;4162069;28;20278;-50
2023/08/27 01:08:21;;;;;;;0.50;0.50;;;;;;;16.01;97.70;98036.97;4171639;28;20199;-51
2023/08/27 01:10:56;;;;;;;0.20;0.20;;;;;;;15.98;98.91;98032.06;4168919;28;20605;-52
2023/08/27 01:13:04;;;;;;;0.40;0.40;;;;;;;16.00;98.85;98017.94;4156879;28;20274;-50
2023/08/27 01:15:07;;;;;;;0.50;0.50;;;;;;;16.02;98.71;98026.75;4169916;28;20208;-51
2023/08/27 01:17:10;;;;;;;0.95;0.95;;;;;;;15.95;99.12;98026.31;4156789;28;20282;-52
2023/08/27 01:19:14;;;;;;;1.10;1.00;;;;;;;15.91;99.10;98014.22;4155538;28;20247;-51
2023/08/27 01:21:20;;;;;;;0.40;0.40;;;;;;;15.94;99.47;98008.91;4154661;28;20201;-50
2023/08/27 01:23:22;;;;;;;0.50;0.50;;;;;;;15.81;100.00;98020.69;4169405;28;20768;-50
2023/08/27 01:25:27;;;;;;;0.60;0.60;;;;;;;15.80;99.71;98024.56;4170937;28;20218;-50
2023/08/27 01:27:39;;;;;;;0.47;0.47;;;;;;;15.83;99.78;98025.91;4171464;28;20453;-49
2023/08/27 01:30:03;;;;;;;0.45;0.45;;;;;;;15.87;99.84;98022.25;4155502;28;20698;-49
2023/08/27 01:32:15;;;;;;;0.30;0.30;;;;;;;15.92;99.73;98015.84;4153773;28;20284;-49
2023/08/27 01:34:18;;;;;;;0.50;0.50;;;;;;;15.88;99.90;98007.34;4161494;28;20209;-50
2023/08/27 01:36:20;;;;;;;0.55;0.55;;;;;;;15.84;99.80;98008.22;4169776;28;20232;-52
2023/08/27 01:38:22;;;;;;;0.47;0.47;;;;;;;15.82;99.18;98000.25;4155608;28;20206;-52
2023/08/27 01:40:25;;;;;;;0.20;0.20;;;;;;;15.91;99.86;97998.44;4171588;28;20258;-50
2023/08/27 01:42:27;;;;;;;0.40;0.40;;;;;;;15.94;99.78;97992.34;4154192;28;20205;-50
2023/08/27 01:44:29;;;;;;;0.47;0.47;;;;;;;15.91;99.48;97998.44;4170160;28;20574;-50
2023/08/27 01:46:31;;;;;;;0.75;0.75;;;;;;;15.91;99.29;98003.97;4155471;28;20228;-50
2023/08/27 01:48:33;;;;;;;0.88;0.88;;;;;;;15.94;99.66;98006.16;4161734;28;20208;-51
2023/08/27 01:50:35;;;;;;;0.38;0.38;;;;;;;15.99;99.84;98016.28;4160996;28;20710;-51
2023/08/27 01:52:36;;;;;;;2.63;0.73;;;;;;;15.90;99.58;98010.59;4161224;28;20208;-50
2023/08/27 01:54:38;;;;;;;1.25;0.70;;;;;;;15.88;99.78;98004.56;4171234;28;20426;-50
2023/08/27 01:56:40;;;;;;;0.40;0.40;;;;;;;15.89;99.81;98011.72;4154873;28;20561;-50
2023/08/27 01:58:41;;;;;;;8.93;0.60;;;;;;;15.89;99.76;98006.22;4153199;28;20682;-50
2023/08/27 02:00:43;;;;;;;0.40;0.40;;;;;;;15.91;99.56;97992.94;4156461;28;20670;-51
2023/08/27 02:02:45;;;;;;;0.40;0.40;;;;;;;15.91;99.61;97987.41;4155915;28;20212;-50
2023/08/27 02:04:47;;;;;;;0.55;0.55;;;;;;;15.76;100.00;97979.34;4154384;28;20686;-51
2023/08/27 02:06:48;;;;;;;0.40;0.40;;;;;;;15.67;100.00;97981.13;4158028;28;20240;-50
2023/08/27 02:08:50;;;;;;;0.50;0.50;;;;;;;15.81;100.00;97981.22;4167705;28;20251;-49
2023/08/27 02:10:51;;;;;;;1.52;1.42;;;;;;;15.72;100.00;97983.00;4153207;28;20308;-50
2023/08/27 02:12:53;;;;;;;0.93;0.93;;;;;;;15.75;100.00;97974.94;4153990;28;20232;-51
2023/08/27 02:14:55;;;;;;;0.40;0.40;;;;;;;15.69;100.00;97973.38;4160900;28;20205;-50
2023/08/27 02:16:56;;;;;;;0.30;0.30;;;;;;;15.74;100.00;97981.59;4156535;28;20229;-50
2023/08/27 02:18:58;;;;;;;0.52;0.52;;;;;;;15.67;99.95;97983.06;4155537;28;20260;-50
2023/08/27 02:21:01;;;;;;;0.20;0.20;;;;;;;15.70;100.00;97980.53;4152901;28;20213;-51
2023/08/27 02:23:03;;;;;;;0.50;0.50;;;;;;;15.78;100.00;97987.34;4158170;28;20201;-49
2023/08/27 02:25:05;;;;;;;0.40;0.40;;;;;;;15.75;100.00;97994.25;4156088;28;20205;-52
2023/08/27 02:27:07;;;;;;;1.30;1.20;;;;;;;15.81;100.00;97987.56;4156850;28;20228;-52
2023/08/27 02:29:09;;;;;;;0.98;0.95;;;;;;;15.81;100.00;97989.50;4155829;28;20214;-49
2023/08/27 02:31:10;;;;;;;0.47;0.47;;;;;;;15.81;100.00;97987.56;4161459;28;20282;-50
2023/08/27 02:33:12;;;;;;;0.40;0.40;;;;;;;15.78;99.96;97993.69;4170642;28;20200;-51
2023/08/27 02:35:14;;;;;;;2.40;0.60;;;;;;;15.82;100.00;98000.25;4153201;28;20651;-51
2023/08/27 02:37:15;;;;;;;9.00;0.95;;;;;;;15.81;99.98;98000.53;4160601;28;20268;-49
2023/08/27 02:39:17;;;;;;;0.50;0.50;;;;;;;15.80;100.00;97996.13;4161128;28;20208;-50
2023/08/27 02:41:19;;;;;;;0.40;0.40;;;;;;;15.81;100.00;97982.03;4154286;28;20264;-50
2023/08/27 02:43:20;;;;;;;0.30;0.30;;;;;;;15.72;100.00;97980.25;4156054;28;20247;-52
2023/08/27 02:45:22;;;;;;;0.93;0.50;;;;;;;15.64;100.00;97981.72;4154951;28;20205;-49
2023/08/27 02:47:24;;;;;;;0.22;0.22;;;;;;;15.64;100.00;97998.25;4155694;28;20210;-50
2023/08/27 02:49:26;;;;;;;0.60;0.60;;;;;;;15.63;100.00;97993.88;4161714;28;20201;-51
2023/08/27 02:51:27;;;;;;;0.52;0.50;;;;;;;15.69;100.00;98000.16;4160557;28;20274;-50
2023/08/27 02:53:29;;;;;;;0.40;0.40;;;;;;;15.65;100.00;98002.69;4160516;28;20693;-50
2023/08/27 02:55:34;;;;;;;0.47;0.47;;;;;;;15.61;100.00;98009.91;4169527;28;20220;-49
2023/08/27 02:57:36;;;;;;;0.40;0.40;;;;;;;15.64;100.00;97989.97;4161114;28;20262;-50
2023/08/27 02:59:38;;;;;;;0.40;0.40;;;;;;;15.59;100.00;97983.72;4168897;28;20781;-50
2023/08/27 03:01:39;;;;;;;0.30;0.30;;;;;;;15.55;100.00;97982.69;4143670;28;20264;-53
2023/08/27 03:03:41;;;;;;;0.57;0.57;;;;;;;15.52;100.00;97989.59;4159989;28;20289;-51
2023/08/27 03:05:43;;;;;;;6.75;1.30;;;;;;;15.51;100.00;97992.66;4155225;28;20279;-51
2023/08/27 03:07:45;;;;;;;0.38;0.38;;;;;;;15.55;100.00;98000.03;4156487;28;20240;-49
2023/08/27 03:09:46;;;;;;;0.40;0.40;;;;;;;15.51;100.00;97998.16;4159959;28;20343;-49
2023/08/27 03:11:51;;;;;;;0.40;0.40;;;;;;;15.53;100.00;97991.25;4159627;28;20752;-49
2023/08/27 03:13:53;;;;;;;0.30;0.30;;;;;;;15.48;100.00;97994.06;4154382;28;20686;-49
2023/08/27 03:15:54;;;;;;;1.60;1.50;;;;;;;15.46;100.00;97985.28;4152874;28;20220;-50
2023/08/27 03:17:56;;;;;;;0.40;0.40;;;;;;;15.48;100.00;97985.78;4136972;28;20206;-51
2023/08/27 03:19:58;;;;;;;0.40;0.40;;;;;;;15.45;100.00;97983.63;4153868;28;20212;-50
2023/08/27 03:22:00;;;;;;;0.70;0.52;;;;;;;15.41;100.00;97971.53;4166838;28;20205;-49
2023/08/27 03:24:01;;;;;;;0.73;0.73;;;;;;;15.37;100.00;97969.66;4160092;28;20258;-49
2023/08/27 03:26:03;;;;;;;0.57;0.57;;;;;;;15.40;100.00;97969.91;4167512;28;20823;-50
2023/08/27 03:28:05;;;;;;;0.63;0.63;;;;;;;15.52;100.00;97964.78;4160228;28;20259;-51
2023/08/27 03:30:07;;;;;;;0.93;0.93;;;;;;;15.41;100.00;97971.53;4167323;28;20208;-50
2023/08/27 03:32:11;;;;;;;0.30;0.30;;;;;;;15.35;100.00;97972.72;4152579;28;20232;-51
2023/08/27 03:34:13;;;;;;;0.60;0.60;;;;;;;15.35;100.00;97961.69;4155191;28;20243;-49
2023/08/27 03:36:14;;;;;;;0.38;0.38;;;;;;;15.46;100.00;97962.38;4154838;28;20640;-50
2023/08/27 03:38:16;;;;;;;0.50;0.50;;;;;;;15.32;100.00;97962.28;4159671;28;20208;-50
2023/08/27 03:40:20;;;;;;;0.40;0.40;;;;;;;15.22;100.00;97959.59;4152994;28;20201;-51
2023/08/27 03:42:21;;;;;;;2.72;0.65;;;;;;;15.20;100.00;97959.06;4153322;28;20322;-49
2023/08/27 03:44:24;;;;;;;0.50;0.50;;;;;;;15.20;100.00;97959.06;4154894;28;20202;-51
2023/08/27 03:46:26;;;;;;;0.73;0.50;;;;;;;15.24;100.00;97954.59;4154394;28;20266;-50
2023/08/27 03:48:27;;;;;;;0.30;0.30;;;;;;;15.26;100.00;97963.41;4157286;28;20204;-51
2023/08/27 03:50:29;;;;;;;0.57;0.57;;;;;;;15.35;100.00;97961.69;4158817;28;21015;-51
2023/08/27 03:52:31;;;;;;;1.17;1.05;;;;;;;15.34;100.00;97949.00;4158037;28;20344;-51
2023/08/27 03:54:32;;;;;;;0.50;0.50;;;;;;;15.37;100.00;97948.41;4157875;28;20240;-50
2023/08/27 03:56:34;;;;;;;0.63;0.63;;;;;;;15.33;100.00;97958.41;4155604;28;20225;-51
2023/08/27 03:58:36;;;;;;;0.40;0.40;;;;;;;15.30;100.00;97958.94;4157238;28;20258;-52
2023/08/27 04:00:38;;;;;;;0.45;0.45;;;;;;;15.37;100.00;97953.13;4163063;28;20263;-52
2023/08/27 04:02:40;;;;;;;0.47;0.47;;;;;;;15.32;100.00;97937.47;4158597;28;20209;-53
2023/08/27 04:04:42;;;;;;;0.38;0.38;;;;;;;15.37;100.00;97931.88;4158844;28;20232;-51
2023/08/27 04:06:44;;;;;;;1.15;1.05;;;;;;;15.34;100.00;97942.66;4172486;28;20227;-50
2023/08/27 04:08:46;;;;;;;0.32;0.32;;;;;;;15.33;100.00;97944.63;4141465;28;20257;-51
2023/08/27 04:10:51;;;;;;;0.88;0.85;;;;;;;15.38;100.00;97950.06;4173097;28;20269;-50
2023/08/27 04:12:54;;;;;;;0.75;0.63;;;;;;;15.34;100.00;97949.00;4163168;28;20298;-50
2023/08/27 04:14:57;;;;;;;3.53;1.55;;;;;;;15.40;100.00;97949.75;4173600;28;20641;-50
2023/08/27 04:16:58;;;;;;;0.30;0.30;;;;;;;15.33;100.00;97930.84;4156825;28;20239;-49
2023/08/27 04:19:00;;;;;;;0.30;0.30;;;;;;;15.25;100.00;97927.88;4156968;28;20300;-49
2023/08/27 04:21:03;;;;;;;0.43;0.40;;;;;;;15.25;100.00;97945.25;4163130;28;20709;-50
2023/08/27 04:23:05;;;;;;;1.00;0.88;;;;;;;15.23;100.00;97947.44;4171202;28;20261;-50
2023/08/27 04:25:07;;;;;;;0.60;0.60;;;;;;;15.21;100.00;97944.19;4169422;28;20201;-50
2023/08/27 04:27:08;;;;;;;0.25;0.25;;;;;;;15.23;100.00;97947.44;4157643;28;20221;-51
2023/08/27 04:29:10;;;;;;;1.08;1.00;;;;;;;15.26;100.00;97963.41;4158076;28;20593;-52
2023/08/27 04:31:12;;;;;;;1.30;0.60;;;;;;;15.29;100.00;97957.31;4156679;28;20249;-49
2023/08/27 04:33:14;;;;;;;0.52;0.52;;;;;;;15.38;100.00;97955.59;4157906;28;20645;-51
2023/08/27 04:35:16;;;;;;;0.40;0.40;;;;;;;15.37;100.00;97948.41;4157550;28;20561;-51
2023/08/27 04:37:18;;;;;;;0.40;0.40;;;;;;;15.36;100.00;97940.44;4155906;28;20737;-50
2023/08/27 04:39:19;;;;;;;0.30;0.30;;;;;;;15.25;100.00;97939.72;4171707;28;20215;-50
2023/08/27 04:41:21;;;;;;;0.35;0.35;;;;;;;15.18;100.00;97942.03;4161789;28;20262;-50
2023/08/27 04:43:23;;;;;;;0.50;0.50;;;;;;;15.19;100.00;97948.34;4169600;28;20208;-51
2023/08/27 04:45:24;;;;;;;12.07;0.68;;;;;;;15.24;100.00;97948.28;4162688;28;20561;-50
2023/08/27 04:47:26;;;;;;;0.40;0.40;;;;;;;15.23;100.00;97941.94;4163038;28;20204;-50
2023/08/27 04:49:28;;;;;;;0.35;0.35;;;;;;;15.16;100.00;97946.19;4170810;28;20204;-49
2023/08/27 04:51:30;;;;;;;0.50;0.50;;;;;;;15.23;100.00;97952.16;4155899;28;20212;-50
2023/08/27 04:53:31;;;;;;;0.20;0.20;;;;;;;15.17;100.00;97956.09;4156724;28;20211;-50
2023/08/27 04:55:33;;;;;;;0.40;0.40;;;;;;;15.16;100.00;97958.00;4161951;28;20233;-50
2023/08/27 04:57:36;;;;;;;0.65;0.65;;;;;;;15.22;100.00;97969.81;4170391;28;20208;-51
2023/08/27 04:59:38;;;;;;;0.47;0.47;;;;;;;14.89;100.00;97974.28;4157175;28;20224;-50
2023/08/27 05:01:39;;;;;;;0.40;0.40;;;;;;;14.86;100.00;97969.38;4158335;28;20686;-51
2023/08/27 05:03:41;;;;;;;0.63;0.63;;;;;;;14.93;100.00;97969.84;4156797;28;20211;-51
2023/08/27 05:05:43;;;;;;;0.55;0.55;;;;;;;14.98;100.00;97975.31;4156618;28;20231;-53
2023/08/27 05:07:45;;;;;;;0.30;0.30;;;;;;;15.07;100.00;97979.06;4158144;28;20261;-49
2023/08/27 05:09:46;;;;;;;0.40;0.40;;;;;;;15.11;100.00;97974.59;4155563;28;20212;-49
2023/08/27 05:11:48;;;;;;;0.32;0.32;;;;;;;15.23;100.00;97974.22;4154532;28;20299;-50
2023/08/27 05:13:50;;;;;;;0.40;0.40;;;;;;;15.29;100.00;97968.34;4161240;28;20251;-50
2023/08/27 05:15:52;;;;;;;0.65;0.65;;;;;;;15.20;100.00;97963.75;4155260;28;20294;-50
2023/08/27 05:17:53;;;;;;;0.55;0.50;;;;;;;15.20;100.00;97963.75;4171328;28;20201;-50
2023/08/27 05:19:55;;;;;;;0.55;0.55;;;;;;;15.27;100.00;97965.06;4157788;28;20217;-49
2023/08/27 05:21:57;;;;;;;0.70;0.70;;;;;;;15.25;100.00;97970.06;4156167;28;20210;-50
2023/08/27 05:23:58;;;;;;;1.65;0.98;;;;;;;15.28;100.00;97961.19;4154852;28;20258;-52
2023/08/27 05:26:00;;;;;;;0.52;0.52;;;;;;;15.28;100.00;97955.66;4156868;28;20718;-50
2023/08/27 05:28:03;;;;;;;0.73;0.60;;;;;;;15.27;100.00;97945.75;4172004;28;20216;-49
2023/08/27 05:30:05;;;;;;;0.85;0.85;;;;;;;15.28;100.00;97939.13;4157506;28;20247;-51
2023/08/27 05:32:07;;;;;;;0.65;0.65;;;;;;;15.36;100.00;97934.94;4170470;28;20228;-50
2023/08/27 05:34:08;;;;;;;0.63;0.63;;;;;;;15.33;100.00;97936.34;4161484;28;20200;-50
2023/08/27 05:36:10;;;;;;;0.63;0.63;;;;;;;15.41;100.00;97932.94;4153570;28;20229;-50
2023/08/27 05:38:12;;;;;;;0.32;0.32;;;;;;;15.38;100.00;97930.78;4171064;28;20212;-50
2023/08/27 05:40:13;;;;;;;0.95;0.73;;;;;;;15.32;100.00;97934.72;4169945;28;20627;-49
2023/08/27 05:42:15;;;;;;;0.35;0.35;;;;;;;15.29;100.00;97945.47;4171016;28;20263;-50
2023/08/27 05:44:17;;;;;;;0.50;0.50;;;;;;;15.21;100.00;97963.47;4156475;28;20255;-52
2023/08/27 05:46:19;;;;;;;0.38;0.38;;;;;;;15.20;100.00;97948.06;4161215;28;20305;-50
2023/08/27 05:48:21;;;;;;;2.08;0.50;;;;;;;15.32;100.00;97944.91;4155391;28;20205;-50
2023/08/27 05:50:23;;;;;;;0.68;0.68;;;;;;;15.23;100.00;97947.44;4155398;28;20209;-50
2023/08/27 05:52:24;;;;;;;0.25;0.25;;;;;;;15.21;100.00;97935.91;4169315;28;20266;-50
2023/08/27 05:54:26;;;;;;;0.20;0.20;;;;;;;15.27;100.00;97947.69;4168104;28;20271;-50
2023/08/27 05:56:28;;;;;;;0.47;0.47;;;;;;;15.31;100.00;97930.25;4156512;28;20282;-50
2023/08/27 05:58:29;;;;;;;0.60;0.50;;;;;;;15.28;100.00;97928.09;4156950;28;20209;-51
2023/08/27 06:00:31;;;;;;;0.52;0.52;;;;;;;15.27;100.00;97929.22;4155022;28;20623;-50
2023/08/27 06:02:33;;;;;;;0.60;0.60;;;;;;;14.93;100.00;97925.75;4161317;28;20201;-50
2023/08/27 06:04:35;;;;;;;0.65;0.65;;;;;;;15.06;100.00;97930.56;4170730;28;20215;-50
2023/08/27 06:06:37;;;;;;;0.82;0.82;;;;;;;15.11;100.00;97936.00;4153776;28;20827;-49
2023/08/27 06:08:39;;;;;;;0.43;0.43;;;;;;;15.10;100.00;97934.38;4155976;28;20685;-50
2023/08/27 06:10:40;;;;;;;1.58;1.10;;;;;;;15.16;100.00;97941.47;4142228;28;20264;-50
2023/08/27 06:12:42;;;;;;;0.90;0.50;;;;;;;14.99;100.00;97946.66;4156366;28;20229;-51
2023/08/27 06:14:44;;;;;;;6.88;1.40;;;;;;;14.83;100.00;97939.63;4169829;28;20212;-49
2023/08/27 06:16:45;;;;;;;0.90;0.52;;;;;;;14.82;100.00;97940.75;4156178;28;20233;-50
2023/08/27 06:18:47;;;;;;;0.70;0.70;;;;;;;14.82;100.00;97935.25;4154466;28;20213;-49
2023/08/27 06:20:49;;;;;;;1.65;0.50;;;;;;;14.69;100.00;97941.44;4155080;28;20267;-51
2023/08/27 06:22:51;;;;;;;1.10;0.60;;;;;;;14.86;100.00;97933.56;4154964;28;20328;-50
2023/08/27 06:24:52;;;;;;;0.85;0.75;;;;;;;14.93;100.00;97942.28;4154320;28;20273;-51
2023/08/27 06:26:54;;;;;;;0.45;0.45;;;;;;;14.98;100.00;97945.00;4152332;28;20240;-50
2023/08/27 06:28:57;;;;;;;1.05;0.93;;;;;;;15.00;100.00;97942.78;4168591;28;20296;-51
2023/08/27 06:30:59;;;;;;;0.57;0.57;;;;;;;15.03;100.00;97931.16;4156714;28;20205;-51
2023/08/27 06:33:02;;;;;;;1.13;1.13;;;;;;;15.03;100.00;97924.84;4173563;28;20270;-52
2023/08/27 06:35:03;;;;;;;1.35;0.60;;;;;;;15.03;100.00;97920.13;4158576;28;20208;-51
2023/08/27 06:37:05;;;;;;;0.60;0.60;;;;;;;15.02;100.00;97934.22;4169125;28;20282;-53
2023/08/27 06:39:07;;;;;;;0.73;0.70;;;;;;;15.02;100.00;97940.53;4157866;28;20347;-50
2023/08/27 06:41:08;;;;;;;0.82;0.80;;;;;;;15.04;100.00;97943.81;4156513;28;20210;-50
2023/08/27 06:43:10;;;;;;;0.73;0.73;;;;;;;14.98;100.00;97950.50;4152756;28;20748;-50
2023/08/27 06:45:12;;;;;;;0.90;0.85;;;;;;;14.83;100.00;97947.09;4172723;28;20204;-51
2023/08/27 06:47:13;;;;;;;4.13;1.00;;;;;;;14.90;100.00;97948.38;4157394;28;20686;-50
2023/08/27 06:49:15;;;;;;;1.50;1.40;;;;;;;14.99;100.00;97951.31;4150643;28;20248;-50
2023/08/27 06:51:18;;;;;;;0.73;0.73;;;;;;;15.09;100.00;97956.72;4152575;28;20201;-49
2023/08/27 06:53:20;;;;;;;0.40;0.40;;;;;;;15.19;100.00;97957.44;4168614;28;20221;-51
2023/08/27 06:55:22;;;;;;;0.47;0.45;;;;;;;15.25;100.00;97971.97;4155660;28;20215;-50
2023/08/27 06:57:24;;;;;;;0.70;0.70;;;;;;;15.32;100.00;97970.56;4154244;28;20266;-50
2023/08/27 06:59:26;;;;;;;0.68;0.68;;;;;;;15.23;100.00;97964.00;4160119;28;20207;-50
2023/08/27 07:01:28;;;;;;;0.70;0.52;;;;;;;15.29;100.00;97965.56;4153285;28;20204;-49
2023/08/27 07:03:30;;;;;;;0.55;0.55;;;;;;;15.43;100.00;97947.22;4168270;28;20732;-50
2023/08/27 07:05:33;;;;;;;0.80;0.80;;;;;;;15.56;100.00;97946.50;4153641;28;20208;-52
2023/08/27 07:07:37;;;;;;;0.40;0.40;;;;;;;15.67;100.00;97936.16;4143402;28;20251;-50
2023/08/27 07:09:39;;;;;;;0.82;0.82;;;;;;;15.59;100.00;97934.06;4169547;28;20247;-50
2023/08/27 07:11:41;;;;;;;1.00;1.00;;;;;;;15.62;100.00;97927.97;4151779;28;20271;-51
2023/08/27 07:13:42;;;;;;;0.40;0.40;;;;;;;15.48;100.00;97943.59;4154762;28;20232;-49
2023/08/27 07:15:44;;;;;;;0.40;0.40;;;;;;;15.56;100.00;97946.50;4159892;28;20649;-50
2023/08/27 07:17:46;;;;;;;0.85;0.85;;;;;;;15.68;100.00;97952.44;4153183;28;20212;-51
2023/08/27 07:19:48;;;;;;;0.80;0.80;;;;;;;15.70;100.00;97963.19;4159673;28;20247;-51
2023/08/27 07:21:50;;;;;;;0.95;0.95;;;;;;;15.79;100.00;97967.72;4167874;28;20230;-49
2023/08/27 07:23:51;;;;;;;0.63;0.63;;;;;;;15.81;100.00;97970.19;4154721;28;20621;-51
2023/08/27 07:25:53;;;;;;;0.82;0.82;;;;;;;15.81;100.00;97959.97;4151413;28;20228;-51
2023/08/27 07:27:55;;;;;;;0.60;0.60;;;;;;;15.69;100.00;97959.59;4160392;28;20240;-51
2023/08/27 07:29:57;;;;;;;6.00;0.90;;;;;;;15.81;100.00;97967.41;4154447;28;20209;-50
2023/08/27 07:31:58;;;;;;;0.47;0.47;;;;;;;15.81;100.00;97968.25;4167564;28;20204;-49
2023/08/27 07:34:00;;;;;;;1.48;0.93;;;;;;;15.87;100.00;97963.47;4154895;28;20236;-51
2023/08/27 07:36:02;;;;;;;0.40;0.40;;;;;;;15.89;100.00;97964.81;4159151;28;20228;-50
2023/08/27 07:38:04;;;;;;;0.57;0.57;;;;;;;15.93;100.00;97976.91;4170778;28;20682;-52
2023/08/27 07:40:10;;;;;;;0.45;0.45;;;;;;;15.99;100.00;97978.50;4154688;28;20208;-50
2023/08/27 07:42:12;;;;;;;0.77;0.77;;;;;;;16.08;100.00;97971.16;4159636;28;20212;-51
2023/08/27 07:44:13;;;;;;;0.60;0.60;;;;;;;16.03;100.00;97974.00;4155510;28;20952;-50
2023/08/27 07:46:15;;;;;;;6.88;0.77;;;;;;;16.03;100.00;97973.19;4168923;28;20228;-49
2023/08/27 07:48:17;;;;;;;1.73;1.58;;;;;;;16.06;100.00;97972.59;4154580;28;20205;-50
2023/08/27 07:50:18;;;;;;;0.32;0.32;;;;;;;16.14;100.00;97980.19;4159535;28;20205;-52
2023/08/27 07:52:20;;;;;;;0.77;0.77;;;;;;;16.17;100.00;97980.41;4159660;28;20256;-51
2023/08/27 07:54:22;;;;;;;0.47;0.47;;;;;;;16.13;100.00;97975.78;4157117;28;20650;-51
2023/08/27 07:56:23;;;;;;;1.13;1.02;;;;;;;16.02;100.00;97977.88;4150429;28;20633;-49
2023/08/27 07:58:25;;;;;;;0.50;0.50;;;;;;;15.98;100.00;97982.38;4151648;28;20248;-50
2023/08/27 08:00:27;;;;;;;0.70;0.70;;;;;;;16.03;100.00;97979.53;4151671;28;20464;-50
2023/08/27 08:02:29;;;;;;;0.50;0.50;;;;;;;16.12;100.00;97976.91;4152082;28;20267;-49
2023/08/27 08:04:31;;;;;;;0.40;0.40;;;;;;;16.28;100.00;97975.56;4152539;28;20247;-49
2023/08/27 08:06:32;;;;;;;0.20;0.20;;;;;;;16.31;100.00;97974.97;4153498;28;20228;-49
2023/08/27 08:08:34;;;;;;;0.73;0.70;;;;;;;16.41;100.00;97972.06;4157842;28;20212;-49
2023/08/27 08:10:36;;;;;;;0.75;0.22;;;;;;;16.52;100.00;97965.28;4155820;28;20231;-50
2023/08/27 08:12:40;;;;;;;1.38;1.05;;;;;;;16.71;100.00;97977.09;4166312;28;20223;-51
2023/08/27 08:14:41;;;;;;;0.60;0.60;;;;;;;16.61;100.00;97980.84;4153551;28;20207;-53
2023/08/27 08:16:43;;;;;;;0.47;0.47;;;;;;;16.78;100.00;97981.13;4155587;28;20232;-49
2023/08/27 08:18:45;;;;;;;0.38;0.38;;;;;;;16.98;100.00;97991.81;4156786;28;20213;-51
2023/08/27 08:20:47;;;;;;;0.40;0.40;;;;;;;17.03;100.00;98000.00;4149846;28;20274;-49
2023/08/27 08:22:49;;;;;;;0.43;0.43;;;;;;;17.20;100.00;97997.50;4152588;28;20237;-50
2023/08/27 08:24:51;;;;;;;0.22;0.22;;;;;;;17.41;100.00;98009.84;4153789;28;20204;-49
2023/08/27 08:26:52;;;;;;;0.60;0.57;;;;;;;17.41;100.00;98024.50;4153949;28;20282;-49
2023/08/27 08:28:54;;;;;;;1.23;1.10;;;;;;;17.49;100.00;98032.09;4167590;28;20764;-52
2023/08/27 08:30:56;;;;;;;0.40;0.40;;;;;;;17.56;100.00;98028.91;4155939;28;20209;-50
2023/08/27 08:32:58;;;;;;;0.38;0.38;;;;;;;17.44;100.00;98034.13;4151923;28;20261;-51
2023/08/27 08:35:01;;;;;;;0.57;0.45;;;;;;;17.72;100.00;98041.31;4160793;28;20215;-50
2023/08/27 08:37:03;;;;;;;1.17;0.75;;;;;;;17.99;100.00;98031.03;4156161;28;20241;-49
2023/08/27 08:39:05;;;;;;;0.30;0.30;;;;;;;17.99;100.00;98033.81;4171363;28;20217;-49
2023/08/27 08:41:07;;;;;;;0.47;0.47;;;;;;;17.68;100.00;98030.03;4155133;28;20206;-53
2023/08/27 08:45:39;;;;;;;0.55;0.55;;;;;;;17.78;100.00;98013.22;4224923;27;21118;-88
2023/08/27 08:48:01;;;;;;;1.00;1.00;;;;;;;18.13;100.00;98014.41;4201847;28;20644;-87
2023/08/27 08:50:16;;;;;;;0.73;0.70;;;;;;;18.27;100.00;98015.19;4215915;28;20217;-88
2023/08/27 08:52:21;;;;;;;0.80;0.80;;;;;;;18.37;100.00;98026.06;4210856;28;20383;-89
2023/08/27 08:54:24;;;;;;;2.60;1.15;;;;;;;18.37;100.00;98014.97;4205740;28;20207;-88
2023/08/27 08:56:41;;;;;;;0.50;0.50;;;;;;;18.49;99.46;98021.63;4217610;28;21985;-87
2023/08/27 08:58:51;;;;;;;0.57;0.57;;;;;;;18.68;99.34;98010.38;4216977;28;20288;-88
2023/08/27 09:01:08;;;;;;;0.40;0.40;;;;;;;18.90;96.87;98018.69;4206308;28;20208;-89
2023/08/27 09:03:11;;;;;;;0.68;0.68;;;;;;;18.83;95.75;98013.59;4220728;28;20260;-86
2023/08/27 09:08:25;;;;;;;0.70;0.70;;;;;;;19.27;95.93;98004.44;4207226;28;20396;-87
2023/08/27 09:10:27;;;;;;;0.55;0.55;;;;;;;19.12;93.78;97999.25;4215976;28;20202;-88
2023/08/27 09:12:30;;;;;;;1.20;0.70;;;;;;;19.23;93.73;97995.09;4220037;28;20226;-88
2023/08/27 09:14:37;;;;;;;0.95;0.93;;;;;;;19.26;92.24;98000.03;4206928;28;20195;-89
2023/08/27 09:16:50;;;;;;;0.60;0.60;;;;;;;19.35;94.17;98004.50;4207489;28;20260;-88
2023/08/27 09:54:17;;;;;;;0.22;0.22;;;;;;;19.15;92.30;97965.31;4152950;28;20239;-84
2023/08/27 09:56:23;;;;;;;0.80;0.80;;;;;;;19.24;93.36;97975.38;4135017;28;20222;-88
2023/08/27 09:58:26;;;;;;;0.63;0.63;;;;;;;19.19;91.90;97985.75;4128597;28;20741;-84
2023/08/27 10:00:29;;;;;;;0.32;0.32;;;;;;;19.39;93.33;97979.69;4126840;28;20313;-84
2023/08/27 10:02:30;;;;;;;0.85;0.57;;;;;;;19.51;90.90;97974.34;4129119;28;20210;-84
2023/08/27 10:04:32;;;;;;;0.40;0.40;;;;;;;19.42;89.86;97970.72;4123065;28;20248;-86
2023/08/27 10:06:35;;;;;;;0.82;0.82;;;;;;;19.43;87.86;97972.34;4109245;28;20213;-85
2023/08/27 10:08:51;;;;;;;0.50;0.50;;;;;;;19.53;88.36;97960.97;4127405;28;20242;-86
2023/08/27 10:11:22;;;;;;;0.85;0.85;;;;;;;19.52;88.84;97965.69;4126317;28;20237;-85
2023/08/27 10:13:24;;;;;;;0.57;0.57;;;;;;;19.60;88.33;97975.19;4114021;28;20630;-90